createdAt,value
2022-08-08T00:01:10.159Z,53
2022-08-08T00:02:50.826Z,53
2022-08-08T00:04:56.611Z,53
2022-08-08T00:06:50.962Z,53
2022-08-08T00:08:50.924Z,53
2022-08-08T00:10:51.918Z,53
2022-08-08T00:13:01.788Z,54
2022-08-08T00:15:08.191Z,55
2022-08-08T00:16:52.599Z,54
2022-08-08T00:18:50.754Z,55
2022-08-08T00:20:51.533Z,55
2022-08-08T00:22:50.428Z,55
2022-08-08T00:24:51.264Z,54
2022-08-08T00:26:50.565Z,54
2022-08-08T00:28:51.297Z,55
2022-08-08T00:32:07.802Z,55
2022-08-08T00:32:50.441Z,55
2022-08-08T00:34:52.103Z,55
2022-08-08T00:37:16.482Z,55
2022-08-08T00:38:56.452Z,55
2022-08-08T00:41:15.565Z,55
2022-08-08T00:42:50.999Z,55
2022-08-08T00:44:52.707Z,55
2022-08-08T00:46:59.251Z,55
2022-08-08T00:49:02.529Z,55
2022-08-08T00:50:54.678Z,56
2022-08-08T00:52:52.319Z,57
2022-08-08T00:54:52.157Z,58
2022-08-08T00:56:51.451Z,57
2022-08-08T00:58:55.664Z,57
2022-08-08T01:00:53.290Z,57
2022-08-08T01:04:00.554Z,57
2022-08-08T01:04:50.343Z,57
2022-08-08T01:06:50.528Z,57
2022-08-08T01:08:53.285Z,57
2022-08-08T01:10:52.885Z,57
2022-08-08T01:12:53.536Z,57
2022-08-08T01:15:00.924Z,57
2022-08-08T01:16:50.939Z,57
2022-08-08T01:18:55.273Z,57
2022-08-08T01:20:51.624Z,57
2022-08-08T01:22:56.168Z,57
2022-08-08T01:24:54.751Z,57
2022-08-08T01:26:51.985Z,57
2022-08-08T01:28:52.017Z,57
2022-08-08T01:30:54.548Z,58
2022-08-08T01:32:52.629Z,58
2022-08-08T01:34:50.897Z,58
2022-08-08T01:36:51.404Z,58
2022-08-08T01:38:55.397Z,58
2022-08-08T01:40:50.479Z,58
2022-08-08T01:42:50.378Z,58
2022-08-08T01:44:55.275Z,58
2022-08-08T01:46:53.257Z,58
2022-08-08T01:48:51.804Z,58
2022-08-08T01:50:51.914Z,58
2022-08-08T01:54:08.088Z,58
2022-08-08T01:56:21.746Z,58
2022-08-08T01:56:52.429Z,58
2022-08-08T01:58:50.358Z,59
2022-08-08T02:00:58.985Z,59
2022-08-08T02:02:51.421Z,59
2022-08-08T02:04:52.741Z,59
2022-08-08T02:06:52.566Z,58
2022-08-08T02:08:51.561Z,58
2022-08-08T02:10:51.599Z,58
2022-08-08T02:12:51.715Z,59
2022-08-08T02:15:03.217Z,59
2022-08-08T02:16:50.863Z,59
2022-08-08T02:18:59.885Z,59
2022-08-08T02:21:20.128Z,59
2022-08-08T02:22:55.754Z,59
2022-08-08T02:24:52.734Z,59
2022-08-08T02:26:51.056Z,59
2022-08-08T02:28:52.750Z,59
2022-08-08T02:31:19.683Z,59
2022-08-08T02:32:50.970Z,59
2022-08-08T02:35:12.208Z,59
2022-08-08T02:36:55.158Z,59
2022-08-08T02:38:51.221Z,59
2022-08-08T02:40:55.037Z,59
2022-08-08T02:44:36.661Z,60
2022-08-08T02:44:59.839Z,60
2022-08-08T02:46:51.284Z,59
2022-08-08T02:48:50.918Z,59
2022-08-08T02:50:57.842Z,59
2022-08-08T02:52:53.317Z,59
2022-08-08T02:54:50.937Z,60
2022-08-08T02:56:51.438Z,60
2022-08-08T02:58:50.435Z,60
2022-08-08T03:00:51.921Z,60
2022-08-08T03:02:51.379Z,60
2022-08-08T03:05:11.374Z,60
2022-08-08T03:06:50.456Z,60
2022-08-08T03:08:52.750Z,61
2022-08-08T03:10:54.649Z,61
2022-08-08T03:13:33.818Z,60
2022-08-08T03:15:55.154Z,60
2022-08-08T03:16:50.606Z,60
2022-08-08T03:18:52.785Z,60
2022-08-08T03:20:53.453Z,60
2022-08-08T03:23:05.730Z,60
2022-08-08T03:24:57.585Z,60
2022-08-08T03:26:50.710Z,60
2022-08-08T03:28:51.922Z,60
2022-08-08T03:31:25.799Z,60
2022-08-08T03:33:54.520Z,60
2022-08-08T03:34:50.476Z,61
2022-08-08T03:36:51.373Z,61
2022-08-08T03:39:16.315Z,61
2022-08-08T03:40:53.089Z,61
2022-08-08T03:42:53.717Z,61
2022-08-08T03:44:53.409Z,61
2022-08-08T03:46:50.865Z,61
2022-08-08T03:49:59.144Z,61
2022-08-08T03:50:52.284Z,61
2022-08-08T03:52:50.150Z,61
2022-08-08T03:55:56.985Z,61
2022-08-08T03:56:55.303Z,61
2022-08-08T03:58:50.908Z,61
2022-08-08T04:01:26.186Z,61
2022-08-08T04:02:54.631Z,61
2022-08-08T04:04:51.130Z,61
2022-08-08T04:06:50.701Z,61
2022-08-08T04:08:51.035Z,61
2022-08-08T04:11:00.543Z,61
2022-08-08T04:12:51.472Z,61
2022-08-08T04:14:51.451Z,61
2022-08-08T04:16:52.444Z,61
2022-08-08T04:18:51.897Z,62
2022-08-08T04:20:51.874Z,62
2022-08-08T04:22:59.137Z,62
2022-08-08T04:24:52.087Z,62
2022-08-08T04:26:59.663Z,62
2022-08-08T04:28:55.137Z,62
2022-08-08T04:31:06.198Z,62
2022-08-08T04:32:51.630Z,62
2022-08-08T04:35:01.518Z,62
2022-08-08T04:36:50.583Z,62
2022-08-08T04:39:48.212Z,62
2022-08-08T04:40:55.940Z,63
2022-08-08T04:43:02.026Z,64
2022-08-08T04:44:52.852Z,64
2022-08-08T04:46:53.009Z,64
2022-08-08T04:48:50.960Z,64
2022-08-08T04:50:50.977Z,63
2022-08-08T04:53:52.807Z,62
2022-08-08T04:54:51.937Z,62
2022-08-08T04:56:50.605Z,62
2022-08-08T04:58:51.270Z,62
2022-08-08T05:00:52.566Z,62
2022-08-08T05:02:54.038Z,63
2022-08-08T05:04:50.485Z,63
2022-08-08T05:06:53.278Z,63
2022-08-08T05:08:54.088Z,62
2022-08-08T05:10:53.781Z,61
2022-08-08T05:13:03.223Z,61
2022-08-08T05:14:53.587Z,61
2022-08-08T05:17:11.660Z,61
2022-08-08T05:18:50.839Z,60
2022-08-08T05:20:55.178Z,59
2022-08-08T05:22:58.015Z,59
2022-08-08T05:24:50.824Z,59
2022-08-08T05:26:50.983Z,57
2022-08-08T05:29:06.810Z,56
2022-08-08T05:32:02.814Z,55
2022-08-08T05:32:54.245Z,55
2022-08-08T05:34:53.943Z,55
2022-08-08T05:36:52.253Z,54
2022-08-08T05:38:52.881Z,54
2022-08-08T05:40:59.353Z,54
2022-08-08T05:42:50.326Z,52
2022-08-08T05:44:52.358Z,52
2022-08-08T05:46:51.968Z,52
2022-08-08T05:48:54.967Z,53
2022-08-08T05:51:17.315Z,53
2022-08-08T05:52:50.352Z,53
2022-08-08T05:55:10.284Z,53
2022-08-08T05:56:50.193Z,53
2022-08-08T05:59:04.418Z,53
2022-08-08T06:00:59.582Z,54
2022-08-08T06:02:51.353Z,54
2022-08-08T06:04:55.553Z,54
2022-08-08T06:06:51.101Z,54
2022-08-08T06:09:42.206Z,54
2022-08-08T06:10:52.326Z,54
2022-08-08T06:12:50.578Z,54
2022-08-08T06:14:57.983Z,54
2022-08-08T06:16:53.062Z,54
2022-08-08T06:18:50.816Z,54
2022-08-08T06:20:57.934Z,54
2022-08-08T06:22:51.034Z,53
2022-08-08T06:24:54.038Z,53
2022-08-08T06:26:53.183Z,53
2022-08-08T06:28:54.744Z,53
2022-08-08T06:30:51.716Z,53
2022-08-08T06:32:53.320Z,53
2022-08-08T06:36:04.990Z,53
2022-08-08T06:36:54.674Z,53
2022-08-08T06:38:52.127Z,53
2022-08-08T06:40:54.955Z,53
2022-08-08T06:42:50.955Z,53
2022-08-08T06:44:50.971Z,53
2022-08-08T06:46:50.450Z,53
2022-08-08T06:48:51.602Z,53
2022-08-08T06:50:53.798Z,52
2022-08-08T06:52:53.591Z,52
2022-08-08T06:54:50.847Z,52
2022-08-08T06:56:53.395Z,51
2022-08-08T06:58:50.374Z,51
2022-08-08T07:00:50.536Z,51
2022-08-08T07:02:52.954Z,51
2022-08-08T07:04:54.698Z,51
2022-08-08T07:06:53.155Z,51
2022-08-08T07:08:51.961Z,51
2022-08-08T07:10:52.485Z,51
2022-08-08T07:12:51.088Z,51
2022-08-08T07:14:52.118Z,51
2022-08-08T07:16:54.857Z,51
2022-08-08T07:18:57.987Z,51
2022-08-08T07:20:52.536Z,51
2022-08-08T07:22:51.974Z,51
2022-08-08T07:24:53.504Z,51
2022-08-08T07:26:53.469Z,51
2022-08-08T07:28:56.855Z,50
2022-08-08T07:30:50.564Z,50
2022-08-08T07:32:51.211Z,50
2022-08-08T07:35:10.020Z,50
2022-08-08T07:36:51.250Z,50
2022-08-08T07:38:55.387Z,50
2022-08-08T07:40:51.212Z,50
2022-08-08T07:42:51.721Z,50
2022-08-08T07:44:51.870Z,50
2022-08-08T07:46:50.209Z,49
2022-08-08T07:48:50.070Z,49
2022-08-08T07:50:50.360Z,49
2022-08-08T07:52:50.125Z,49
2022-08-08T07:54:50.245Z,49
2022-08-08T07:56:52.399Z,48
2022-08-08T07:58:50.662Z,48
2022-08-08T08:00:51.038Z,47
2022-08-08T08:02:54.059Z,47
2022-08-08T08:04:52.981Z,48
2022-08-08T08:06:51.389Z,47
2022-08-08T08:08:53.477Z,48
2022-08-08T08:10:51.609Z,46
2022-08-08T08:12:51.369Z,46
2022-08-08T08:14:51.183Z,46
2022-08-08T08:16:51.883Z,45
2022-08-08T08:18:57.121Z,45
2022-08-08T08:20:50.148Z,43
2022-08-08T08:22:50.312Z,43
2022-08-08T08:24:50.206Z,45
2022-08-08T08:26:56.580Z,43
2022-08-08T08:28:52.917Z,42
2022-08-08T08:30:50.562Z,42
2022-08-08T08:32:53.849Z,42
2022-08-08T08:34:50.210Z,42
2022-08-08T08:36:56.157Z,41
2022-08-08T08:38:50.826Z,42
2022-08-08T08:40:52.085Z,41
2022-08-08T08:42:52.451Z,41
2022-08-08T08:44:50.640Z,41
2022-08-08T08:46:59.450Z,40
2022-08-08T08:48:50.627Z,39
2022-08-08T08:50:53.821Z,38
2022-08-08T08:53:55.754Z,38
2022-08-08T08:54:56.390Z,38
2022-08-08T08:56:50.665Z,39
2022-08-08T08:58:51.802Z,38
2022-08-08T09:01:15.460Z,38
2022-08-08T09:02:54.175Z,38
2022-08-08T09:04:57.452Z,38
2022-08-08T09:06:52.112Z,38
2022-08-08T09:08:52.743Z,38
2022-08-08T09:10:51.555Z,38
2022-08-08T09:12:51.551Z,38
2022-08-08T09:14:52.045Z,38
2022-08-08T09:16:50.431Z,38
2022-08-08T09:18:50.776Z,38
2022-08-08T09:21:55.904Z,38
2022-08-08T09:22:59.387Z,37
2022-08-08T09:24:52.747Z,38
2022-08-08T09:26:52.203Z,36
2022-08-08T09:28:50.154Z,36
2022-08-08T09:30:51.079Z,36
2022-08-08T09:33:55.230Z,36
2022-08-08T09:34:51.725Z,36
2022-08-08T09:37:59.146Z,36
2022-08-08T09:38:58.145Z,36
2022-08-08T09:41:00.501Z,36
2022-08-08T09:42:52.493Z,36
2022-08-08T09:44:50.388Z,35
2022-08-08T09:48:05.333Z,35
2022-08-08T09:48:52.244Z,35
2022-08-08T09:50:56.795Z,35
2022-08-08T09:53:33.010Z,36
2022-08-08T09:54:50.375Z,36
2022-08-08T09:56:50.401Z,35
2022-08-08T09:58:50.702Z,35
2022-08-08T10:00:59.510Z,35
2022-08-08T10:02:51.763Z,35
2022-08-08T10:04:53.629Z,35
2022-08-08T10:06:54.354Z,35
2022-08-08T10:08:50.566Z,34
2022-08-08T10:10:52.017Z,34
2022-08-08T10:13:15.222Z,35
2022-08-08T10:14:50.338Z,34
2022-08-08T10:16:53.298Z,35
2022-08-08T10:18:57.070Z,35
2022-08-08T10:21:25.540Z,35
2022-08-08T10:22:55.763Z,35
2022-08-08T10:24:53.419Z,35
2022-08-08T10:27:00.738Z,35
2022-08-08T10:28:54.884Z,35
2022-08-08T10:31:02.445Z,35
2022-08-08T10:32:51.559Z,35
2022-08-08T10:35:01.901Z,35
2022-08-08T10:36:50.896Z,35
2022-08-08T10:38:50.045Z,35
2022-08-08T10:40:54.038Z,35
2022-08-08T10:42:50.987Z,35
2022-08-08T10:44:54.955Z,35
2022-08-08T10:46:50.411Z,35
2022-08-08T10:48:59.963Z,35
2022-08-08T10:50:51.019Z,34
2022-08-08T10:52:51.709Z,34
2022-08-08T10:54:50.667Z,35
2022-08-08T10:56:53.322Z,34
2022-08-08T10:58:55.483Z,34
2022-08-08T11:01:15.985Z,34
2022-08-08T11:02:50.772Z,34
2022-08-08T11:04:54.613Z,34
2022-08-08T11:06:50.819Z,34
2022-08-08T11:08:54.388Z,34
2022-08-08T11:10:50.992Z,34
2022-08-08T11:13:30.312Z,34
2022-08-08T11:14:50.173Z,34
2022-08-08T11:16:50.386Z,34
2022-08-08T11:18:51.526Z,34
2022-08-08T11:20:53.017Z,34
2022-08-08T11:22:52.305Z,34
2022-08-08T11:24:50.279Z,34
2022-08-08T11:26:58.471Z,34
2022-08-08T11:28:51.051Z,34
2022-08-08T11:30:53.473Z,34
2022-08-08T11:32:54.307Z,34
2022-08-08T11:35:37.943Z,33
2022-08-08T11:36:58.679Z,33
2022-08-08T11:38:56.513Z,33
2022-08-08T11:40:53.518Z,33
2022-08-08T11:42:50.619Z,33
2022-08-08T11:44:50.915Z,33
2022-08-08T11:46:54.876Z,33
2022-08-08T11:48:51.284Z,33
2022-08-08T11:50:53.078Z,33
2022-08-08T11:52:50.183Z,33
2022-08-08T11:54:54.984Z,33
2022-08-08T11:56:58.817Z,32
2022-08-08T11:58:52.931Z,32
2022-08-08T12:00:54.069Z,32
2022-08-08T12:02:52.996Z,32
2022-08-08T12:04:50.332Z,32
2022-08-08T12:06:55.465Z,32
2022-08-08T12:08:51.186Z,32
2022-08-08T12:10:51.523Z,32
2022-08-08T12:12:56.268Z,32
2022-08-08T12:14:58.562Z,32
2022-08-08T12:16:51.977Z,32
2022-08-08T12:18:51.503Z,32
2022-08-08T12:20:50.586Z,31
2022-08-08T12:22:53.622Z,31
2022-08-08T12:24:57.112Z,31
2022-08-08T12:26:59.500Z,31
2022-08-08T12:28:50.806Z,31
2022-08-08T12:30:50.838Z,31
2022-08-08T12:32:51.623Z,31
2022-08-08T12:34:50.039Z,31
2022-08-08T12:36:50.201Z,31
2022-08-08T12:38:56.126Z,31
2022-08-08T12:41:34.139Z,31
2022-08-08T12:42:51.965Z,31
2022-08-08T12:44:51.532Z,30
2022-08-08T12:47:03.006Z,30
2022-08-08T12:49:43.324Z,30
2022-08-08T12:50:50.763Z,30
2022-08-08T12:52:51.194Z,29
2022-08-08T12:54:54.427Z,30
2022-08-08T12:56:50.760Z,30
2022-08-08T12:58:51.537Z,31
2022-08-08T13:00:53.664Z,31
2022-08-08T13:03:01.943Z,30
2022-08-08T13:04:53.386Z,30
2022-08-08T13:06:50.488Z,31
2022-08-08T13:08:57.157Z,30
2022-08-08T13:11:00.804Z,30
2022-08-08T13:12:52.276Z,29
2022-08-08T13:14:54.286Z,29
2022-08-08T13:16:59.769Z,29
2022-08-08T13:19:20.625Z,29
2022-08-08T13:20:52.585Z,29
2022-08-08T13:23:36.315Z,30
2022-08-08T13:24:50.886Z,30
2022-08-08T13:26:50.650Z,30
2022-08-08T13:28:50.778Z,30
2022-08-08T13:30:51.178Z,30
2022-08-08T13:32:50.322Z,30
2022-08-08T13:34:54.220Z,30
2022-08-08T13:36:52.811Z,30
2022-08-08T13:38:50.890Z,30
2022-08-08T13:40:52.603Z,30
2022-08-08T13:42:51.300Z,30
2022-08-08T13:44:50.305Z,30
2022-08-08T13:46:51.505Z,30
2022-08-08T13:50:33.283Z,30
2022-08-08T13:51:34.372Z,30
2022-08-08T13:52:50.860Z,30
2022-08-08T13:54:56.142Z,30
2022-08-08T13:57:01.347Z,30
2022-08-08T13:58:58.814Z,30
2022-08-08T14:00:51.545Z,30
2022-08-08T14:02:50.682Z,30
2022-08-08T14:04:57.461Z,29
2022-08-08T14:06:50.246Z,29
2022-08-08T14:08:57.372Z,29
2022-08-08T14:10:50.724Z,29
2022-08-08T14:12:50.850Z,28
2022-08-08T14:14:52.035Z,28
2022-08-08T14:16:50.561Z,28
2022-08-08T14:18:55.112Z,28
2022-08-08T14:21:02.532Z,28
2022-08-08T14:22:51.021Z,28
2022-08-08T14:24:52.150Z,28
2022-08-08T14:26:51.938Z,28
2022-08-08T14:28:50.982Z,28
2022-08-08T14:30:51.000Z,28
2022-08-08T14:32:54.425Z,28
2022-08-08T14:34:51.360Z,28
2022-08-08T14:36:55.173Z,28
2022-08-08T14:39:12.397Z,28
2022-08-08T14:40:51.323Z,28
2022-08-08T14:43:22.471Z,28
2022-08-08T14:44:53.308Z,28
2022-08-08T14:46:52.353Z,28
2022-08-08T14:49:00.018Z,28
2022-08-08T14:50:56.471Z,28
2022-08-08T14:52:50.457Z,28
2022-08-08T14:54:50.582Z,28
2022-08-08T14:56:51.019Z,28
2022-08-08T14:58:50.351Z,28
2022-08-08T15:00:50.995Z,28
2022-08-08T15:03:18.371Z,28
2022-08-08T15:04:50.548Z,28
2022-08-08T15:06:52.213Z,28
2022-08-08T15:08:57.240Z,28
2022-08-08T15:10:51.022Z,28
2022-08-08T15:12:52.631Z,28
2022-08-08T15:14:50.589Z,28
2022-08-08T15:16:50.863Z,28
2022-08-08T15:18:52.474Z,28
2022-08-08T15:20:55.013Z,28
2022-08-08T15:22:51.864Z,28
2022-08-08T15:24:51.239Z,28
2022-08-08T15:26:53.825Z,28
2022-08-08T15:28:54.933Z,28
2022-08-08T15:30:52.237Z,28
2022-08-08T15:32:50.348Z,28
2022-08-08T15:34:50.797Z,28
2022-08-08T15:36:52.402Z,27
2022-08-08T15:38:51.464Z,27
2022-08-08T15:40:54.152Z,27
2022-08-08T15:42:51.253Z,27
2022-08-08T15:44:53.386Z,27
2022-08-08T15:46:51.663Z,27
2022-08-08T15:48:50.735Z,27
2022-08-08T15:50:50.965Z,27
2022-08-08T15:52:51.072Z,27
2022-08-08T15:54:53.337Z,27
2022-08-08T15:56:56.367Z,27
2022-08-08T15:58:50.868Z,27
2022-08-08T16:00:53.988Z,27
2022-08-08T16:02:59.177Z,27
2022-08-08T16:04:59.639Z,27
2022-08-08T16:06:50.756Z,27
2022-08-08T16:13:01.883Z,27
2022-08-08T16:13:06.895Z,27
2022-08-08T16:13:43.218Z,27
2022-08-08T16:14:54.973Z,27
2022-08-08T16:16:51.086Z,27
2022-08-08T16:18:59.707Z,27
2022-08-08T16:20:51.698Z,27
2022-08-08T16:22:52.738Z,27
2022-08-08T16:24:51.380Z,27
2022-08-08T16:26:51.353Z,27
2022-08-08T16:28:50.196Z,26
2022-08-08T16:30:50.061Z,27
2022-08-08T16:32:50.398Z,27
2022-08-08T16:34:50.784Z,27
2022-08-08T16:36:51.538Z,27
2022-08-08T16:38:57.221Z,27
2022-08-08T16:40:50.534Z,27
2022-08-08T16:42:54.931Z,27
2022-08-08T16:44:55.886Z,27
2022-08-08T16:46:56.968Z,27
2022-08-08T16:48:50.916Z,27
2022-08-08T16:50:52.730Z,27
2022-08-08T16:54:58.258Z,27
2022-08-08T16:55:54.591Z,27
2022-08-08T16:58:13.695Z,27
2022-08-08T16:58:50.376Z,27
2022-08-08T17:00:52.485Z,26
2022-08-08T17:02:51.870Z,27
2022-08-08T17:04:50.791Z,27
2022-08-08T17:06:50.065Z,27
2022-08-08T17:08:50.944Z,27
2022-08-08T17:11:11.558Z,27
2022-08-08T17:12:55.657Z,27
2022-08-08T17:14:52.240Z,27
2022-08-08T17:17:03.841Z,27
2022-08-08T17:18:52.241Z,27
2022-08-08T17:20:50.457Z,27
2022-08-08T17:23:58.875Z,27
2022-08-08T17:25:02.451Z,28
2022-08-08T17:26:50.883Z,28
2022-08-08T17:28:52.228Z,27
2022-08-08T17:30:50.144Z,27
2022-08-08T17:34:30.468Z,27
2022-08-08T17:35:54.950Z,27
2022-08-08T17:37:13.891Z,27
2022-08-08T17:38:53.091Z,27
2022-08-08T17:40:55.832Z,27
2022-08-08T17:42:51.360Z,27
2022-08-08T17:44:50.489Z,27
2022-08-08T17:46:51.286Z,26
2022-08-08T17:48:50.985Z,26
2022-08-08T17:50:50.966Z,26
2022-08-08T17:52:50.849Z,26
2022-08-08T17:54:56.947Z,26
2022-08-08T17:56:51.805Z,26
2022-08-08T17:58:54.109Z,26
2022-08-08T18:00:57.988Z,26
2022-08-08T18:03:14.349Z,26
2022-08-08T18:04:51.687Z,27
2022-08-08T18:06:50.997Z,26
2022-08-08T18:08:55.969Z,27
2022-08-08T18:10:52.973Z,27
2022-08-08T18:12:53.702Z,27
2022-08-08T18:14:50.695Z,27
2022-08-08T18:16:54.819Z,27
2022-08-08T18:18:58.440Z,27
2022-08-08T18:21:25.410Z,28
2022-08-08T18:22:52.036Z,28
2022-08-08T18:24:50.535Z,28
2022-08-08T18:26:57.338Z,28
2022-08-08T18:28:57.827Z,28
2022-08-08T18:30:50.919Z,28
2022-08-08T18:32:52.572Z,28
2022-08-08T18:34:50.191Z,29
2022-08-08T18:36:52.744Z,29
2022-08-08T18:38:52.167Z,29
2022-08-08T18:40:54.416Z,29
2022-08-08T18:42:51.423Z,29
2022-08-08T18:44:58.016Z,29
2022-08-08T18:46:58.616Z,29
2022-08-08T18:48:50.410Z,30
2022-08-08T18:50:59.476Z,29
2022-08-08T18:52:54.727Z,30
2022-08-08T18:55:11.931Z,30
2022-08-08T18:56:50.979Z,30
2022-08-08T18:58:51.223Z,30
2022-08-08T19:00:50.795Z,30
2022-08-08T19:03:07.244Z,30
2022-08-08T19:04:51.811Z,30
2022-08-08T19:06:50.156Z,32
2022-08-08T19:08:50.033Z,32
2022-08-08T19:10:52.648Z,32
2022-08-08T19:12:54.116Z,31
2022-08-08T19:14:50.230Z,31
2022-08-08T19:16:53.901Z,31
2022-08-08T19:19:14.345Z,32
2022-08-08T19:20:52.315Z,32
2022-08-08T19:22:50.334Z,32
2022-08-08T19:26:02.722Z,32
2022-08-08T19:26:53.646Z,33
2022-08-08T19:28:52.699Z,33
2022-08-08T19:31:16.915Z,33
2022-08-08T19:32:50.882Z,33
2022-08-08T19:34:52.201Z,33
2022-08-08T19:36:50.847Z,33
2022-08-08T19:38:51.971Z,33
2022-08-08T19:40:56.658Z,32
2022-08-08T19:42:51.028Z,33
2022-08-08T19:44:54.384Z,33
2022-08-08T19:46:51.262Z,34
2022-08-08T19:48:50.278Z,35
2022-08-08T19:50:50.330Z,35
2022-08-08T19:53:00.230Z,35
2022-08-08T19:55:06.077Z,35
2022-08-08T19:56:51.097Z,35
2022-08-08T19:58:55.049Z,35
2022-08-08T20:00:54.362Z,35
2022-08-08T20:02:54.484Z,36
2022-08-08T20:04:52.783Z,36
2022-08-08T20:06:52.210Z,36
2022-08-08T20:08:52.874Z,36
2022-08-08T20:10:50.666Z,36
2022-08-08T20:14:13.538Z,36
2022-08-08T20:14:53.864Z,36
2022-08-08T20:16:55.751Z,36
2022-08-08T20:18:54.426Z,37
2022-08-08T20:20:51.086Z,37
2022-08-08T20:22:56.733Z,37
2022-08-08T20:24:51.296Z,37
2022-08-08T20:26:52.510Z,37
2022-08-08T20:28:51.562Z,37
2022-08-08T20:31:00.989Z,37
2022-08-08T20:32:54.042Z,37
2022-08-08T20:35:02.718Z,37
2022-08-08T20:36:50.868Z,37
2022-08-08T20:38:50.991Z,37
2022-08-08T20:40:54.470Z,37
2022-08-08T20:42:55.618Z,38
2022-08-08T20:44:51.070Z,38
2022-08-08T20:46:54.092Z,38
2022-08-08T20:48:51.948Z,38
2022-08-08T20:50:55.894Z,38
2022-08-08T20:52:51.171Z,38
2022-08-08T20:54:51.084Z,39
2022-08-08T20:57:21.427Z,39
2022-08-08T20:58:50.521Z,39
2022-08-08T21:00:50.582Z,39
2022-08-08T21:02:53.919Z,39
2022-08-08T21:04:52.190Z,39
2022-08-08T21:06:54.472Z,39
2022-08-08T21:08:53.848Z,39
2022-08-08T21:10:50.961Z,39
2022-08-08T21:12:56.074Z,39
2022-08-08T21:14:53.586Z,39
2022-08-08T21:16:51.091Z,39
2022-08-08T21:18:50.946Z,39
2022-08-08T21:20:51.603Z,39
2022-08-08T21:22:51.095Z,40
2022-08-08T21:24:55.122Z,40
2022-08-08T21:26:52.885Z,40
2022-08-08T21:29:03.042Z,40
2022-08-08T21:30:53.020Z,40
2022-08-08T21:32:53.903Z,39
2022-08-08T21:36:13.159Z,39
2022-08-08T21:36:51.382Z,39
2022-08-08T21:38:50.535Z,39
2022-08-08T21:40:57.557Z,39
2022-08-08T21:42:51.779Z,39
2022-08-08T21:45:45.017Z,39
2022-08-08T21:48:02.720Z,39
2022-08-08T21:48:57.285Z,39
2022-08-08T21:50:52.924Z,39
2022-08-08T21:54:18.995Z,39
2022-08-08T21:55:22.480Z,39
2022-08-08T21:56:50.845Z,39
2022-08-08T21:58:56.140Z,39
2022-08-08T22:00:57.234Z,40
2022-08-08T22:02:50.317Z,39
2022-08-08T22:04:51.970Z,39
2022-08-08T22:06:50.407Z,39
2022-08-08T22:08:51.741Z,39
2022-08-08T22:10:50.798Z,40
2022-08-08T22:13:18.147Z,39
2022-08-08T22:14:53.038Z,39
2022-08-08T22:16:54.241Z,40
2022-08-08T22:18:55.969Z,40
2022-08-08T22:20:50.986Z,40
2022-08-08T22:22:53.677Z,40
2022-08-08T22:24:51.233Z,40
2022-08-08T22:27:03.742Z,40
2022-08-08T22:29:59.609Z,40
2022-08-08T22:30:54.116Z,40
2022-08-08T22:32:50.363Z,40
2022-08-08T22:34:56.073Z,40
2022-08-08T22:36:53.863Z,40
2022-08-08T22:38:51.134Z,41
2022-08-08T22:40:50.484Z,40
2022-08-08T22:42:50.547Z,41
2022-08-08T22:44:51.247Z,41
2022-08-08T22:46:52.849Z,41
2022-08-08T22:48:55.599Z,41
2022-08-08T22:50:51.610Z,41
2022-08-08T22:54:28.792Z,41
2022-08-08T22:55:06.568Z,41
2022-08-08T22:56:50.980Z,42
2022-08-08T22:58:51.853Z,42
2022-08-08T23:00:55.320Z,43
2022-08-08T23:02:51.955Z,43
2022-08-08T23:04:51.037Z,43
2022-08-08T23:07:03.831Z,44
2022-08-08T23:09:00.865Z,43
2022-08-08T23:11:13.722Z,43
2022-08-08T23:12:53.879Z,43
2022-08-08T23:16:40.183Z,43
2022-08-08T23:17:00.087Z,43
2022-08-08T23:18:53.986Z,43
2022-08-08T23:20:56.183Z,43
2022-08-08T23:22:50.084Z,44
2022-08-08T23:24:50.233Z,44
2022-08-08T23:26:56.844Z,44
2022-08-08T23:28:50.776Z,44
2022-08-08T23:30:50.803Z,44
2022-08-08T23:32:51.589Z,45
2022-08-08T23:35:00.056Z,45
2022-08-08T23:36:54.930Z,44
2022-08-08T23:38:54.124Z,45
2022-08-08T23:40:54.807Z,45
2022-08-08T23:42:52.054Z,47
2022-08-08T23:44:53.183Z,48
2022-08-08T23:48:58.109Z,49
2022-08-08T23:49:20.517Z,49
2022-08-08T23:50:58.460Z,49
2022-08-08T23:52:53.066Z,48
2022-08-08T23:55:23.297Z,47
2022-08-08T23:56:55.252Z,48
2022-08-08T23:58:51.983Z,48
